Time;durP1;ratioP1;P1;durP2;ratioP2;P2;SDS_P1;SDS_P2;PMS_P1;PMS_P2;Temp;Humidity;BMP_temperature;BMP_pressure;BME280_temperature;BME280_humidity;BME280_pressure;Samples;Min_cycle;Max_cycle;Signal;HPM_P1;HPM_P2
2022/11/19 00:00:51;;;;;;;2.10;2.00;;;;;;;-3.67;82.23;102119.41;4847834;29;20561;-74
2022/11/19 00:03:19;;;;;;;2.30;2.10;;;;;;;-3.65;82.52;102111.53;4844597;29;20042;-76
2022/11/19 00:05:49;;;;;;;2.60;2.40;;;;;;;-3.75;82.68;102116.13;4845264;29;20072;-74
2022/11/19 00:08:17;;;;;;;2.47;2.28;;;;;;;-3.75;83.31;102117.00;4844689;29;20054;-74
2022/11/19 00:10:44;;;;;;;2.30;2.13;;;;;;;-3.78;82.42;102097.97;4844646;29;20050;-74
2022/11/19 00:13:12;;;;;;;2.50;2.30;;;;;;;-3.73;82.32;102111.75;4844345;29;20186;-75
2022/11/19 00:15:37;;;;;;;2.30;2.10;;;;;;;-3.78;82.44;102104.03;4827579;29;20033;-74
2022/11/19 00:18:04;;;;;;;2.97;2.03;;;;;;;-3.87;82.04;102086.03;4844525;29;20042;-76
2022/11/19 00:20:31;;;;;;;2.33;2.08;;;;;;;-3.79;82.12;102101.47;4844792;29;20171;-75
2022/11/19 00:22:57;;;;;;;2.20;2.00;;;;;;;-3.73;82.17;102116.94;4844242;29;20052;-76
2022/11/19 00:25:24;;;;;;;3.13;2.47;;;;;;;-3.75;82.27;102105.72;4844439;29;20057;-75
2022/11/19 00:27:51;;;;;;;2.08;1.92;;;;;;;-3.79;82.44;102110.13;4844198;29;20493;-74
2022/11/19 00:30:18;;;;;;;2.30;2.10;;;;;;;-3.77;82.20;102100.53;4844361;29;20062;-74
2022/11/19 00:32:44;;;;;;;2.88;2.67;;;;;;;-3.78;82.54;102108.38;4843585;29;20037;-74
2022/11/19 00:35:10;;;;;;;3.20;2.97;;;;;;;-3.84;82.16;102100.72;4826917;29;20022;-74
2022/11/19 00:37:36;;;;;;;4.18;2.83;;;;;;;-3.83;82.03;102103.28;4843483;29;20594;-75
2022/11/19 00:40:02;;;;;;;2.40;2.20;;;;;;;-3.85;82.14;102106.81;4845355;29;20037;-74
2022/11/19 00:42:29;;;;;;;5.35;4.82;;;;;;;-3.84;82.22;102113.75;4857090;29;20038;-73
2022/11/19 00:44:54;;;;;;;3.23;2.13;;;;;;;-3.98;82.34;102110.63;4845749;29;20040;-74
2022/11/19 00:47:20;;;;;;;3.03;2.70;;;;;;;-3.95;82.20;102116.63;4828073;29;20078;-74
2022/11/19 00:49:45;;;;;;;2.30;2.10;;;;;;;-3.93;81.99;102116.56;4844567;29;20033;-74
2022/11/19 00:52:11;;;;;;;3.53;3.13;;;;;;;-4.03;81.42;102118.56;4844330;29;20037;-75
2022/11/19 00:54:36;;;;;;;2.50;2.30;;;;;;;-4.00;81.21;102123.69;4850577;29;20033;-74
2022/11/19 00:57:02;;;;;;;2.33;2.00;;;;;;;-3.97;80.65;102122.75;4834934;29;20036;-74
2022/11/19 00:59:27;;;;;;;2.33;2.07;;;;;;;-3.95;79.68;102123.56;4851679;29;20471;-74
2022/11/19 01:01:53;;;;;;;2.50;2.30;;;;;;;-4.06;79.74;102102.97;4847920;29;20032;-75
2022/11/19 01:04:19;;;;;;;2.30;2.10;;;;;;;-4.16;79.69;102106.72;4844424;29;20034;-73
2022/11/19 01:06:44;;;;;;;2.30;2.10;;;;;;;-4.08;79.37;102121.22;4844152;29;20042;-74
2022/11/19 01:09:10;;;;;;;2.37;2.17;;;;;;;-4.09;78.63;102108.25;4844847;29;20038;-74
2022/11/19 01:11:38;;;;;;;2.40;2.07;;;;;;;-4.09;78.10;102116.94;4844599;29;20053;-75
2022/11/19 01:14:05;;;;;;;2.30;2.10;;;;;;;-4.13;78.09;102117.03;4843993;29;20383;-74
2022/11/19 01:16:34;;;;;;;2.00;1.90;;;;;;;-4.10;78.39;102119.56;4844391;29;20029;-74
2022/11/19 01:19:00;;;;;;;2.40;2.20;;;;;;;-4.16;78.50;102102.34;4846343;29;20407;-75
2022/11/19 01:21:29;;;;;;;2.30;2.10;;;;;;;-4.15;78.56;102130.09;4826866;29;20061;-74
2022/11/19 01:24:19;;;;;;;2.20;2.00;;;;;;;-4.16;78.52;102127.53;4843176;29;20050;-75
2022/11/19 01:26:45;;;;;;;2.70;2.07;;;;;;;-4.18;78.70;102129.31;4843094;29;20041;-74
2022/11/19 01:29:10;;;;;;;2.33;2.13;;;;;;;-4.53;78.79;102075.50;4842455;29;20097;-76
2022/11/19 01:31:37;;;;;;;2.13;2.03;;;;;;;-4.25;78.43;102122.53;4842495;29;20082;-74
2022/11/19 01:34:02;;;;;;;2.50;2.30;;;;;;;-4.29;78.77;102129.56;4842094;29;20030;-75
2022/11/19 01:36:29;;;;;;;5.97;2.43;;;;;;;-4.26;78.27;102132.09;4842454;29;20090;-74
2022/11/19 01:38:55;;;;;;;2.20;1.92;;;;;;;-4.32;78.44;102127.03;4841815;29;20030;-75
2022/11/19 01:41:26;;;;;;;2.05;1.92;;;;;;;-4.33;78.64;102129.66;4843113;29;20130;-73
2022/11/19 01:43:57;;;;;;;3.35;2.10;;;;;;;-4.29;77.84;102134.75;4843135;29;20076;-74
2022/11/19 01:46:29;;;;;;;2.60;1.92;;;;;;;-4.31;78.68;102133.94;4843052;29;20042;-75
2022/11/19 01:49:02;;;;;;;1.88;1.77;;;;;;;-4.35;78.05;102129.66;4843151;29;20026;-74
2022/11/19 01:51:36;;;;;;;2.13;2.03;;;;;;;-4.33;77.95;102130.53;4843322;29;20042;-73
2022/11/19 01:54:14;;;;;;;1.80;1.70;;;;;;;-4.41;77.38;102122.88;4843127;29;20478;-74
2022/11/19 01:56:40;;;;;;;3.67;2.05;;;;;;;-4.44;77.31;102124.69;4842696;29;20037;-75
2022/11/19 01:59:10;;;;;;;1.90;1.80;;;;;;;-4.41;77.65;102137.63;4842709;29;20034;-74
2022/11/19 02:01:35;;;;;;;2.25;2.10;;;;;;;-4.48;77.93;102136.03;4842557;29;20078;-74
2022/11/19 02:04:02;;;;;;;1.83;1.73;;;;;;;-4.47;77.36;102137.75;4841999;29;20434;-75
2022/11/19 02:06:29;;;;;;;2.85;2.13;;;;;;;-4.47;77.21;102130.81;4842496;29;20094;-74
2022/11/19 02:08:55;;;;;;;1.90;1.80;;;;;;;-4.42;77.10;102144.56;4843171;29;20049;-75
2022/11/19 02:11:28;;;;;;;2.03;1.92;;;;;;;-4.39;77.09;102141.91;4842797;29;20060;-74
2022/11/19 02:13:54;;;;;;;2.10;2.00;;;;;;;-4.46;77.59;102150.72;4826645;29;20041;-75
2022/11/19 02:16:22;;;;;;;2.47;2.30;;;;;;;-4.41;77.01;102150.63;4842370;29;20030;-74
2022/11/19 02:19:01;;;;;;;2.38;2.10;;;;;;;-4.39;77.19;102154.91;4842179;29;20045;-74
2022/11/19 02:21:43;;;;;;;1.90;1.80;;;;;;;-4.48;77.57;102143.84;4842203;29;20032;-73
2022/11/19 02:24:35;;;;;;;2.63;2.42;;;;;;;-4.43;78.32;102149.78;4843160;29;20038;-74
2022/11/19 02:27:21;;;;;;;2.55;2.35;;;;;;;-4.48;78.94;102146.44;4840421;29;20403;-74
2022/11/19 02:30:05;;;;;;;4.10;2.28;;;;;;;-4.56;78.63;102133.63;4842441;29;20037;-74
2022/11/19 02:32:38;;;;;;;2.35;2.15;;;;;;;-4.58;79.03;102134.53;4826341;29;20026;-74
2022/11/19 02:35:12;;;;;;;2.72;2.20;;;;;;;-4.55;79.65;102150.06;4842581;29;20029;-76
2022/11/19 02:38:03;;;;;;;2.50;2.30;;;;;;;-4.54;79.69;102136.19;4842542;29;20102;-75
2022/11/19 02:40:46;;;;;;;2.92;2.15;;;;;;;-4.54;80.02;102142.25;4842259;29;20098;-74
2022/11/19 02:43:15;;;;;;;2.72;2.30;;;;;;;-4.50;80.36;102145.63;4842345;29;20030;-72
2022/11/19 02:45:48;;;;;;;3.22;2.10;;;;;;;-4.49;79.83;102160.34;4825596;29;20077;-76
2022/11/19 02:48:20;;;;;;;3.25;2.95;;;;;;;-4.47;80.18;102150.75;4826171;29;20117;-74
2022/11/19 02:50:56;;;;;;;3.17;2.15;;;;;;;-4.50;80.64;102148.22;4825994;29;20040;-75
2022/11/19 02:53:22;;;;;;;5.70;2.22;;;;;;;-4.47;80.70;102158.56;4841848;29;20050;-75
2022/11/19 03:04:28;;;;;;;2.42;2.22;;;;;;;-4.62;80.34;102132.91;4841484;29;20046;-74
2022/11/19 03:06:58;;;;;;;2.25;2.13;;;;;;;-4.54;79.85;102151.78;4842084;29;20040;-74
2022/11/19 03:09:25;;;;;;;2.88;1.92;;;;;;;-4.57;79.90;102141.44;4841284;29;20499;-75
2022/11/19 03:12:08;;;;;;;2.38;2.17;;;;;;;-4.54;80.73;102146.59;4842193;29;20052;-75
2022/11/19 03:18:01;;;;;;;2.30;2.17;;;;;;;-4.63;80.88;102154.56;4842930;29;20067;-75
2022/11/19 03:20:59;;;;;;;3.13;2.50;;;;;;;-4.54;80.91;102157.84;4842688;29;20041;-74
2022/11/19 03:23:56;;;;;;;2.20;2.00;;;;;;;-4.53;79.52;102162.16;4834551;29;20038;-74
2022/11/19 03:27:13;;;;;;;2.33;2.13;;;;;;;-4.54;79.63;102164.78;4842274;29;20186;-75
2022/11/19 03:29:44;;;;;;;4.30;2.00;;;;;;;-4.51;79.87;102168.16;4826034;29;20050;-75
2022/11/19 03:32:18;;;;;;;2.72;2.38;;;;;;;-4.58;79.62;102163.16;4843167;29;20575;-73
2022/11/19 03:34:47;;;;;;;2.40;2.20;;;;;;;-4.64;79.42;102151.09;4842304;29;20503;-74
2022/11/19 03:37:15;;;;;;;2.58;2.38;;;;;;;-4.63;79.62;102162.34;4828846;29;20030;-75
2022/11/19 03:39:42;;;;;;;2.35;2.15;;;;;;;-4.96;79.43;102123.16;4846219;29;20046;-74
2022/11/19 03:42:11;;;;;;;3.03;2.67;;;;;;;-4.61;79.47;102171.00;4847544;29;20038;-75
2022/11/19 03:44:49;;;;;;;1.90;1.80;;;;;;;-4.69;79.89;102148.59;4861684;29;20041;-75
2022/11/19 03:47:19;;;;;;;2.47;2.03;;;;;;;-4.63;79.78;102164.94;4845679;29;20042;-75
2022/11/19 03:49:50;;;;;;;3.65;2.88;;;;;;;-4.63;79.76;102159.75;4845170;29;20078;-73
2022/11/19 03:52:20;;;;;;;2.92;2.70;;;;;;;-4.69;78.87;102160.75;4844531;29;20077;-74
2022/11/19 03:54:46;;;;;;;3.55;2.42;;;;;;;-4.67;79.68;102162.41;4844620;29;20030;-76
2022/11/19 03:57:16;;;;;;;2.57;2.37;;;;;;;-4.72;79.58;102166.88;4844921;29;20068;-75
2022/11/19 03:59:42;;;;;;;2.50;2.30;;;;;;;-4.78;78.87;102158.34;4821675;29;20294;-73
2022/11/19 04:02:09;;;;;;;2.63;2.43;;;;;;;-4.77;78.87;102170.44;4848092;29;20030;-75
2022/11/19 04:04:36;;;;;;;2.22;2.03;;;;;;;-4.78;78.39;102176.53;4844348;29;20045;-74
2022/11/19 04:07:16;;;;;;;2.78;2.45;;;;;;;-4.78;79.13;102161.78;4828405;29;20121;-76
2022/11/19 04:09:41;;;;;;;3.33;2.53;;;;;;;-4.81;79.36;102163.59;4843760;29;20482;-74
2022/11/19 04:12:16;;;;;;;3.33;2.57;;;;;;;-4.82;79.57;102173.13;4845331;29;20090;-74
2022/11/19 04:14:42;;;;;;;2.97;2.17;;;;;;;-4.82;78.82;102173.13;4843839;29;20101;-74
2022/11/19 04:17:08;;;;;;;2.90;2.13;;;;;;;-4.86;79.22;102163.69;4843659;29;20042;-75
2022/11/19 04:19:33;;;;;;;3.20;2.50;;;;;;;-4.91;79.32;102169.88;4844690;29;20033;-74
2022/11/19 04:21:59;;;;;;;3.13;2.83;;;;;;;-4.93;79.25;102164.69;4843475;29;20065;-74
2022/11/19 04:24:24;;;;;;;2.63;2.43;;;;;;;-4.93;78.96;102164.69;4843596;29;20030;-73
2022/11/19 04:26:50;;;;;;;2.40;2.20;;;;;;;-4.97;78.91;102168.22;4843615;29;20466;-75
2022/11/19 04:29:15;;;;;;;2.27;2.07;;;;;;;-5.06;79.48;102147.63;4844186;29;20034;-74
2022/11/19 04:31:42;;;;;;;2.97;2.67;;;;;;;-4.98;78.70;102166.50;4843752;29;20477;-74
2022/11/19 04:34:08;;;;;;;2.00;1.90;;;;;;;-5.02;79.06;102165.72;4844132;29;20048;-75
2022/11/19 04:36:35;;;;;;;2.77;2.57;;;;;;;-5.03;79.43;102183.94;4844815;29;20106;-74
2022/11/19 04:39:00;;;;;;;2.90;2.47;;;;;;;-5.09;79.55;102174.53;4844934;29;20038;-75
2022/11/19 04:41:26;;;;;;;2.67;2.47;;;;;;;-5.08;79.73;102181.44;4861710;29;20033;-74
2022/11/19 04:43:52;;;;;;;3.50;2.70;;;;;;;-5.10;80.31;102174.56;4856843;29;20073;-73
2022/11/19 04:46:17;;;;;;;2.60;2.40;;;;;;;-5.23;80.68;102160.06;4844759;29;20041;-75
2022/11/19 04:48:43;;;;;;;3.80;3.40;;;;;;;-5.19;79.81;102182.53;4843020;29;20114;-74
2022/11/19 04:51:08;;;;;;;3.03;2.37;;;;;;;-5.21;79.30;102186.84;4843965;29;20037;-74
2022/11/19 04:53:34;;;;;;;2.57;2.37;;;;;;;-5.24;79.59;102173.94;4842982;29;20534;-74
2022/11/19 04:55:59;;;;;;;3.60;2.27;;;;;;;-5.19;78.80;102172.13;4843182;29;20410;-74
2022/11/19 04:58:25;;;;;;;2.90;2.60;;;;;;;-5.22;78.54;102183.41;4843135;29;20072;-74
2022/11/19 05:00:50;;;;;;;2.53;2.33;;;;;;;-5.27;77.94;102180.03;4842716;29;20151;-74
2022/11/19 05:03:16;;;;;;;3.60;2.30;;;;;;;-5.54;77.43;102137.25;4842840;29;20040;-76
2022/11/19 05:05:41;;;;;;;3.97;2.40;;;;;;;-5.27;77.49;102185.22;4843008;29;20386;-75
2022/11/19 05:08:07;;;;;;;2.53;2.33;;;;;;;-5.32;76.76;102177.53;4843185;29;20041;-75
2022/11/19 05:10:32;;;;;;;3.10;2.90;;;;;;;-5.33;76.09;102187.94;4842843;29;20050;-76
2022/11/19 05:12:58;;;;;;;2.40;2.20;;;;;;;-5.31;75.90;102181.84;4843095;29;20038;-74
2022/11/19 05:15:23;;;;;;;2.93;2.60;;;;;;;-5.34;75.99;102189.69;4843584;29;20046;-75
2022/11/19 05:17:49;;;;;;;2.93;2.73;;;;;;;-5.40;75.96;102181.16;4843415;29;20030;-75
2022/11/19 05:20:15;;;;;;;2.80;2.60;;;;;;;-5.39;75.35;102181.13;4843680;29;20046;-75
2022/11/19 05:22:40;;;;;;;2.33;2.10;;;;;;;-5.42;75.05;102181.19;4843798;29;20086;-75
2022/11/19 05:25:06;;;;;;;10.90;5.17;;;;;;;-5.46;75.22;102176.94;4843432;29;20440;-74
2022/11/19 05:27:31;;;;;;;4.80;2.90;;;;;;;-5.43;74.58;102189.84;4843495;29;20048;-74
2022/11/19 05:29:57;;;;;;;3.50;2.30;;;;;;;-5.45;74.11;102185.56;4842918;29;20117;-75
2022/11/19 05:32:22;;;;;;;4.60;3.90;;;;;;;-5.52;74.44;102177.00;4843590;29;20041;-74
2022/11/19 05:34:48;;;;;;;4.47;2.30;;;;;;;-5.58;73.45;102163.28;4842475;29;20407;-76
2022/11/19 05:37:14;;;;;;;3.13;2.27;;;;;;;-5.54;73.69;102181.38;4843362;29;20034;-75
2022/11/19 05:39:39;;;;;;;2.33;2.23;;;;;;;-5.59;73.02;102180.59;4843751;29;20044;-75
2022/11/19 05:42:05;;;;;;;3.70;2.20;;;;;;;-5.67;73.50;102174.69;4843386;29;20041;-75
2022/11/19 05:44:30;;;;;;;2.57;2.37;;;;;;;-5.73;73.60;102174.78;4843198;29;20117;-75
2022/11/19 05:46:58;;;;;;;2.30;2.10;;;;;;;-5.81;73.40;102155.88;4842961;29;20030;-73
2022/11/19 05:49:24;;;;;;;2.20;2.00;;;;;;;-5.69;73.14;102202.41;4842753;29;20087;-75
2022/11/19 05:51:49;;;;;;;9.27;2.40;;;;;;;-5.70;72.85;102196.34;4843074;29;20497;-72
2022/11/19 05:54:15;;;;;;;2.57;2.37;;;;;;;-5.69;72.84;102202.41;4832220;29;20083;-74
2022/11/19 05:56:40;;;;;;;2.53;2.10;;;;;;;-5.72;72.31;102194.66;4824205;29;20041;-72
2022/11/19 05:59:06;;;;;;;6.10;3.03;;;;;;;-5.87;72.22;102187.09;4823702;29;20030;-74
2022/11/19 06:01:31;;;;;;;2.27;2.07;;;;;;;-5.80;72.06;102199.94;4824232;29;20041;-74
2022/11/19 06:03:57;;;;;;;2.80;2.50;;;;;;;-5.81;72.30;102208.63;4824210;29;20038;-75
2022/11/19 06:06:23;;;;;;;2.90;2.43;;;;;;;-5.85;72.74;102206.09;4822499;29;20038;-71
2022/11/19 06:08:48;;;;;;;3.17;2.50;;;;;;;-5.85;72.76;102213.88;4821555;29;20040;-77
2022/11/19 06:14:00;;;;;;;3.47;2.50;;;;;;;-6.05;72.33;102199.53;4805507;29;20058;-71
2022/11/19 06:16:25;;;;;;;5.45;2.50;;;;;;;-5.91;72.93;102229.56;4805386;29;20054;-72
2022/11/19 06:18:51;;;;;;;5.83;2.70;;;;;;;-5.94;72.60;102225.28;4805359;29;20523;-71
2022/11/19 06:21:16;;;;;;;3.13;2.60;;;;;;;-5.96;72.57;102229.66;4805234;29;20047;-72
2022/11/19 06:23:42;;;;;;;2.30;2.10;;;;;;;-6.00;73.17;102233.16;4805441;29;20042;-73
2022/11/19 06:26:09;;;;;;;3.13;2.83;;;;;;;-6.02;73.46;102237.53;4805519;29;20203;-74
2022/11/19 06:28:34;;;;;;;7.38;2.92;;;;;;;-6.00;73.19;102252.19;4805454;29;20077;-72
2022/11/19 06:31:00;;;;;;;5.53;2.63;;;;;;;-6.06;73.16;102257.47;4805053;29;20121;-74
2022/11/19 06:33:26;;;;;;;3.65;2.45;;;;;;;-6.06;73.07;102270.44;4805909;29;20061;-76
2022/11/19 06:35:51;;;;;;;2.70;2.50;;;;;;;-6.08;73.13;102266.09;4806136;29;20387;-75
2022/11/19 06:38:17;;;;;;;3.77;3.03;;;;;;;-6.04;73.60;102279.03;4790274;29;20039;-75
2022/11/19 06:40:46;;;;;;;3.27;2.70;;;;;;;-6.41;73.96;102220.72;4805077;29;20035;-78
2022/11/19 06:43:12;;;;;;;5.82;3.10;;;;;;;-6.04;73.81;102281.63;4805100;29;20042;-72
2022/11/19 06:45:37;;;;;;;3.07;2.80;;;;;;;-6.11;74.30;102271.34;4804674;29;20084;-74
2022/11/19 06:48:03;;;;;;;4.00;3.67;;;;;;;-6.22;74.15;102268.03;4804882;29;20118;-72
2022/11/19 06:50:29;;;;;;;6.95;3.10;;;;;;;-6.11;73.68;102292.94;4805164;29;20023;-71
2022/11/19 06:52:55;;;;;;;3.42;2.97;;;;;;;-6.13;73.28;102292.09;4805235;29;20030;-72
2022/11/19 06:55:21;;;;;;;4.20;2.77;;;;;;;-6.13;73.31;102302.47;4804675;29;20092;-70
2022/11/19 06:57:46;;;;;;;4.73;3.37;;;;;;;-6.32;74.06;102281.13;4805776;29;20087;-76
2022/11/19 07:00:12;;;;;;;7.23;3.17;;;;;;;-6.19;74.05;102309.47;4808740;29;20042;-76
2022/11/19 07:02:38;;;;;;;4.38;3.13;;;;;;;-6.18;73.67;102308.59;4805570;29;20041;-73
2022/11/19 07:05:04;;;;;;;5.50;3.33;;;;;;;-6.20;73.57;102311.22;4805096;29;20038;-74
2022/11/19 07:07:30;;;;;;;4.18;3.47;;;;;;;-6.19;74.51;102314.66;4806125;29;20150;-73
2022/11/19 07:09:56;;;;;;;5.63;3.53;;;;;;;-6.24;73.88;102312.13;4810651;29;20027;-75
2022/11/19 07:12:21;;;;;;;3.50;2.90;;;;;;;-6.21;74.79;102316.44;4827049;29;20322;-73
2022/11/19 07:14:47;;;;;;;4.50;3.67;;;;;;;-6.48;74.17;102273.53;4827171;29;20034;-75
2022/11/19 07:17:13;;;;;;;5.70;3.53;;;;;;;-6.29;74.26;102306.16;4826691;29;20034;-75
2022/11/19 07:19:38;;;;;;;4.67;3.20;;;;;;;-6.41;74.86;102290.72;4825917;29;20133;-75
2022/11/19 07:22:04;;;;;;;5.07;4.07;;;;;;;-6.33;75.24;102310.50;4825985;29;20034;-73
2022/11/19 07:24:29;;;;;;;4.40;3.40;;;;;;;-6.32;75.21;102309.63;4825838;29;20500;-74
2022/11/19 07:26:55;;;;;;;8.50;3.73;;;;;;;-6.32;74.91;102311.38;4826992;29;20078;-74
2022/11/19 07:29:20;;;;;;;10.73;3.60;;;;;;;-6.26;74.19;102319.94;4823968;29;20034;-76
2022/11/19 07:31:49;;;;;;;3.80;3.50;;;;;;;-6.26;73.60;102314.75;4827472;29;20034;-75
2022/11/19 07:34:16;;;;;;;14.23;3.35;;;;;;;-6.26;73.93;102321.66;4826532;29;20115;-79
2022/11/19 07:36:43;;;;;;;6.45;3.28;;;;;;;-6.32;72.71;102314.81;4826220;29;20038;-76
2022/11/19 07:39:08;;;;;;;7.32;3.78;;;;;;;-6.35;73.10;102319.19;4826579;29;20130;-77
2022/11/19 07:44:18;;;;;;;18.10;4.10;;;;;;;-6.49;74.00;102315.88;4827461;29;20415;-79
2022/11/19 07:46:44;;;;;;;3.77;3.27;;;;;;;-6.54;72.92;102315.06;4827237;29;20041;-75
2022/11/19 07:49:09;;;;;;;3.57;3.10;;;;;;;-6.48;73.08;102315.84;4826327;29;20034;-73
2022/11/19 07:51:35;;;;;;;4.07;3.27;;;;;;;-6.48;72.60;102323.63;4825523;29;20026;-76
2022/11/19 07:54:00;;;;;;;10.43;3.60;;;;;;;-6.46;72.39;102334.84;4826146;29;20042;-76
2022/11/19 07:56:26;;;;;;;4.27;3.20;;;;;;;-6.46;71.97;102344.34;4811357;29;20035;-75
2022/11/19 07:58:52;;;;;;;4.13;3.17;;;;;;;-6.43;72.06;102352.09;4826315;29;20120;-76
2022/11/19 08:01:20;;;;;;;6.10;3.13;;;;;;;-6.48;71.80;102343.50;4825446;29;20133;-74
2022/11/19 08:03:47;;;;;;;3.35;2.78;;;;;;;-6.80;71.57;102286.81;4826753;29;20049;-75
2022/11/19 08:06:14;;;;;;;8.98;3.38;;;;;;;-6.50;71.84;102345.25;4825544;29;20031;-73
2022/11/19 08:08:41;;;;;;;3.83;3.13;;;;;;;-6.54;71.99;102348.75;4825933;29;20447;-74
2022/11/19 08:11:12;;;;;;;34.50;5.38;;;;;;;-6.54;71.38;102351.34;4828508;29;20506;-74
2022/11/19 08:14:03;;;;;;;26.58;5.00;;;;;;;-6.58;71.14;102348.78;4827130;29;20049;-78
2022/11/19 08:19:16;;;;;;;3.55;2.97;;;;;;;-6.69;71.38;102342.84;4826835;29;20102;-75
2022/11/19 08:21:44;;;;;;;5.93;3.63;;;;;;;-6.58;72.10;102348.78;4826258;29;20038;-75
2022/11/19 08:24:11;;;;;;;4.70;3.72;;;;;;;-6.57;71.88;102350.50;4825487;29;20030;-79
2022/11/19 08:26:37;;;;;;;5.00;4.13;;;;;;;-6.60;72.36;102345.34;4826156;29;20387;-73
2022/11/19 08:29:04;;;;;;;7.82;3.97;;;;;;;-6.49;71.19;102359.94;4825332;29;20041;-72
2022/11/19 08:31:30;;;;;;;7.93;3.22;;;;;;;-6.53;71.36;102342.69;4826189;29;20106;-76
2022/11/19 08:33:55;;;;;;;5.97;3.30;;;;;;;-6.56;71.81;102336.69;4826422;29;20034;-76
2022/11/19 08:36:21;;;;;;;7.20;4.43;;;;;;;-6.46;71.46;102336.56;4825225;29;20308;-73
2022/11/19 08:38:47;;;;;;;4.57;3.50;;;;;;;-6.39;70.93;102351.19;4825982;29;20042;-76
2022/11/19 08:44:02;;;;;;;6.70;3.42;;;;;;;-6.21;70.81;102348.41;4826791;29;20037;-73
2022/11/19 08:46:28;;;;;;;4.88;3.55;;;;;;;-6.13;70.50;102349.16;4826945;29;20030;-75
2022/11/19 08:48:54;;;;;;;7.13;3.80;;;;;;;-5.98;70.60;102349.00;4828691;29;20033;-76
2022/11/19 08:51:19;;;;;;;7.73;3.50;;;;;;;-5.89;70.58;102352.34;4811667;29;20549;-75
2022/11/19 08:53:45;;;;;;;5.83;4.53;;;;;;;-6.00;69.46;102326.53;4826454;29;20034;-78
2022/11/19 08:56:11;;;;;;;3.92;3.53;;;;;;;-5.89;69.37;102349.75;4826595;29;20460;-75
2022/11/19 08:58:36;;;;;;;9.73;4.30;;;;;;;-5.96;70.02;102323.03;4825471;29;20049;-75
2022/11/19 09:01:10;;;;;;;6.57;3.13;;;;;;;-5.94;70.89;102322.13;4809040;29;20034;-78
2022/11/19 09:03:35;;;;;;;7.28;3.88;;;;;;;-5.81;72.04;102353.06;4824599;29;20483;-69
2022/11/19 09:06:01;;;;;;;4.03;3.63;;;;;;;-5.99;73.04;102339.50;4824723;29;20042;-68
2022/11/19 09:08:27;;;;;;;4.57;3.20;;;;;;;-6.11;74.26;102331.84;4824284;29;20037;-76
2022/11/19 09:10:55;;;;;;;4.05;3.10;;;;;;;-6.01;74.25;102346.44;4807825;29;20133;-71
2022/11/19 09:13:20;;;;;;;4.90;4.40;;;;;;;-5.93;75.21;102348.94;4824517;29;20069;-71
2022/11/19 09:15:50;;;;;;;7.00;3.27;;;;;;;-5.88;75.32;102346.25;4824522;29;20034;-69
2022/11/19 09:18:16;;;;;;;6.65;3.60;;;;;;;-5.87;75.80;102347.94;4824446;29;20030;-70
2022/11/19 09:20:42;;;;;;;9.17;3.43;;;;;;;-5.83;77.25;102344.44;4824467;29;20038;-68
2022/11/19 09:23:07;;;;;;;6.73;3.83;;;;;;;-5.99;76.84;102336.91;4824212;29;20368;-70
2022/11/19 09:25:33;;;;;;;5.70;4.53;;;;;;;-6.11;77.67;102338.75;4825468;29;20442;-75
2022/11/19 09:27:59;;;;;;;3.40;3.00;;;;;;;-6.11;78.80;102343.94;4826835;29;20056;-71
2022/11/19 09:30:25;;;;;;;4.23;3.27;;;;;;;-6.06;78.59;102353.41;4826051;29;20114;-70
2022/11/19 09:32:50;;;;;;;7.63;3.70;;;;;;;-6.04;78.54;102356.00;4825166;29;20039;-69
2022/11/19 09:35:19;;;;;;;3.97;3.23;;;;;;;-6.04;77.78;102351.66;4826933;29;20271;-71
2022/11/19 09:37:46;;;;;;;4.95;3.40;;;;;;;-5.91;78.52;102352.34;4830011;29;20628;-71
2022/11/19 09:40:18;;;;;;;6.30;4.87;;;;;;;-5.80;78.38;102360.81;4830990;29;20137;-74
2022/11/19 09:43:16;;;;;;;4.07;3.63;;;;;;;-5.65;77.14;102364.97;4798784;29;20104;-73
2022/11/19 09:45:53;;;;;;;4.50;3.58;;;;;;;-5.54;78.35;102357.03;4830080;29;20030;-71
2022/11/19 09:48:37;;;;;;;8.50;3.60;;;;;;;-5.46;78.61;102348.28;4826922;29;20034;-69
2022/11/19 09:51:14;;;;;;;3.90;3.58;;;;;;;-5.36;78.05;102357.63;4825524;29;20500;-69
2022/11/19 09:53:47;;;;;;;4.55;3.05;;;;;;;-5.34;76.59;102345.50;4808670;29;20117;-71
2022/11/19 09:56:20;;;;;;;6.82;4.13;;;;;;;-5.36;77.43;102352.44;4823626;29;20027;-77
2022/11/19 09:58:45;;;;;;;5.88;4.57;;;;;;;-5.27;77.14;102360.97;4807457;29;20045;-71
2022/11/19 10:01:16;;;;;;;5.00;3.90;;;;;;;-5.30;77.48;102331.56;4823654;29;20030;-70
2022/11/19 10:03:49;;;;;;;8.02;3.42;;;;;;;-5.10;76.82;102353.78;4823664;29;20035;-70
2022/11/19 10:06:14;;;;;;;4.15;3.45;;;;;;;-5.24;77.18;102373.91;4823301;29;20042;-73
2022/11/19 10:09:17;;;;;;;5.57;2.87;;;;;;;-5.47;78.04;102354.34;4823032;29;20026;-70
2022/11/19 10:12:18;;;;;;;5.78;3.15;;;;;;;-5.53;77.76;102363.94;4823949;29;20058;-72
2022/11/19 10:15:14;;;;;;;5.07;3.30;;;;;;;-5.43;78.58;102355.16;4792318;29;20444;-77
2022/11/19 10:17:45;;;;;;;5.32;3.47;;;;;;;-5.22;79.61;102360.00;4824109;29;20042;-71
2022/11/19 10:20:32;;;;;;;4.93;4.32;;;;;;;-5.16;78.67;102359.09;4823752;29;20487;-75
2022/11/19 10:23:10;;;;;;;4.13;3.15;;;;;;;-5.21;79.57;102368.66;4823659;29;20125;-69
2022/11/19 10:25:44;;;;;;;5.10;4.15;;;;;;;-5.17;80.27;102368.63;4823544;29;20094;-74
2022/11/19 10:28:13;;;;;;;4.00;3.15;;;;;;;-5.14;80.23;102372.91;4806648;29;20050;-71
2022/11/19 10:30:46;;;;;;;6.15;4.32;;;;;;;-5.17;80.04;102362.56;4823878;29;20046;-73
2022/11/19 10:33:22;;;;;;;6.32;4.22;;;;;;;-5.23;79.78;102347.06;4823202;29;20034;-74
2022/11/19 10:35:59;;;;;;;6.53;4.60;;;;;;;-5.18;78.94;102360.84;4823280;29;20045;-73
2022/11/19 10:38:47;;;;;;;5.95;4.07;;;;;;;-5.24;79.13;102358.31;4822767;29;20038;-73
2022/11/19 10:41:31;;;;;;;3.70;3.20;;;;;;;-5.32;80.41;102359.31;4823228;29;20041;-74
2022/11/19 10:44:35;;;;;;;5.25;3.28;;;;;;;-5.33;80.17;102343.75;4806504;29;20034;-71
2022/11/19 10:46:59;;;;;;;4.13;3.70;;;;;;;-5.36;79.89;102361.97;4799029;29;20102;-74
2022/11/19 10:49:25;;;;;;;4.72;3.17;;;;;;;-5.50;79.69;102348.31;4811275;29;20030;-74
2022/11/19 10:51:50;;;;;;;5.07;3.37;;;;;;;-5.45;80.56;102350.00;4827117;29;20125;-73
2022/11/19 10:54:26;;;;;;;3.77;3.07;;;;;;;-5.48;81.04;102331.88;4827611;29;20038;-76
2022/11/19 10:56:54;;;;;;;7.38;4.65;;;;;;;-5.25;80.85;102354.00;4826323;29;20083;-75
2022/11/19 10:59:23;;;;;;;5.88;4.53;;;;;;;-5.13;79.82;102354.69;4810353;29;20031;-70
2022/11/19 11:02:00;;;;;;;6.55;4.68;;;;;;;-5.09;78.90;102350.31;4826708;29;20030;-74
2022/11/19 11:04:28;;;;;;;4.88;3.65;;;;;;;-5.17;79.27;102331.41;4826656;29;20042;-74
2022/11/19 11:06:57;;;;;;;3.58;3.15;;;;;;;-5.22;79.63;102330.59;4826512;29;20046;-73
2022/11/19 11:09:35;;;;;;;5.07;3.53;;;;;;;-5.17;80.14;102336.59;4826560;29;20038;-73
2022/11/19 11:15:24;;;;;;;5.32;4.07;;;;;;;-5.21;80.52;102337.50;4826377;29;20145;-74
2022/11/19 11:18:09;;;;;;;8.10;3.65;;;;;;;-5.36;79.64;102326.47;4826356;29;20091;-74
2022/11/19 11:20:37;;;;;;;3.50;3.13;;;;;;;-5.31;79.47;102334.19;4825890;29;20457;-72
2022/11/19 11:23:09;;;;;;;4.43;3.28;;;;;;;-5.35;80.40;102327.34;4825200;29;20121;-71
2022/11/19 11:25:38;;;;;;;8.88;3.70;;;;;;;-5.37;80.60;102298.78;4826456;29;20124;-74
2022/11/19 11:28:16;;;;;;;6.68;4.15;;;;;;;-5.12;80.70;102312.25;4826223;29;20034;-74
2022/11/19 11:30:54;;;;;;;4.53;4.13;;;;;;;-5.00;80.05;102326.78;4827449;29;20125;-73
2022/11/19 11:33:23;;;;;;;8.43;3.53;;;;;;;-4.99;79.32;102333.69;4810310;29;20095;-76
2022/11/19 11:35:49;;;;;;;4.90;3.17;;;;;;;-5.34;79.62;102272.78;4825698;29;20110;-74
2022/11/19 11:38:19;;;;;;;5.35;4.15;;;;;;;-4.98;79.88;102335.41;4825866;29;20062;-74
2022/11/19 11:41:04;;;;;;;7.85;4.78;;;;;;;-4.91;79.69;102331.84;4825701;29;20125;-79
2022/11/19 11:43:31;;;;;;;6.53;3.83;;;;;;;-5.03;79.34;102324.22;4818034;29;20476;-79
2022/11/19 11:45:59;;;;;;;3.55;3.13;;;;;;;-5.02;79.42;102338.94;4808956;29;20133;-72
2022/11/19 11:48:34;;;;;;;8.00;3.78;;;;;;;-5.23;79.33;102323.69;4825848;29;20433;-75
2022/11/19 11:51:00;;;;;;;6.85;3.92;;;;;;;-5.13;80.14;102340.84;4826381;29;20034;-78
2022/11/19 11:53:31;;;;;;;6.30;3.63;;;;;;;-5.22;80.07;102328.00;4825403;29;20091;-72
2022/11/19 11:56:00;;;;;;;6.80;3.25;;;;;;;-5.13;80.53;102338.25;4824833;29;20038;-72
2022/11/19 11:58:31;;;;;;;4.68;3.28;;;;;;;-5.21;79.92;102329.69;4823585;29;20050;-74
2022/11/19 12:01:14;;;;;;;8.20;3.55;;;;;;;-5.34;79.83;102335.09;4824846;29;20099;-71